sensor_id;sensor_type;location;lat;lon;timestamp;P1;P2;P0
57884;PMS5003;43703;51.060;-0.086;2023-03-11T00:01:18;14;13;
57884;PMS5003;43703;51.060;-0.086;2023-03-11T00:03:43;13;13;
57884;PMS5003;43703;51.060;-0.086;2023-03-11T00:06:08;16;14;
57884;PMS5003;43703;51.060;-0.086;2023-03-11T00:08:34;13;13;
57884;PMS5003;43703;51.060;-0.086;2023-03-11T00:10:59;12;12;
57884;PMS5003;43703;51.060;-0.086;2023-03-11T00:13:24;12;11;
57884;PMS5003;43703;51.060;-0.086;2023-03-11T00:15:50;13;10;
57884;PMS5003;43703;51.060;-0.086;2023-03-11T00:18:15;12;12;
57884;PMS5003;43703;51.060;-0.086;2023-03-11T00:20:41;15;13;
57884;PMS5003;43703;51.060;-0.086;2023-03-11T00:23:05;15;13;
57884;PMS5003;43703;51.060;-0.086;2023-03-11T00:25:31;17;15;
57884;PMS5003;43703;51.060;-0.086;2023-03-11T00:27:55;12;12;
57884;PMS5003;43703;51.060;-0.086;2023-03-11T00:30:21;14;13;
57884;PMS5003;43703;51.060;-0.086;2023-03-11T00:32:46;16;13;
57884;PMS5003;43703;51.060;-0.086;2023-03-11T00:35:12;21;16;
57884;PMS5003;43703;51.060;-0.086;2023-03-11T00:37:37;16;16;
57884;PMS5003;43703;51.060;-0.086;2023-03-11T00:40:02;16;14;
57884;PMS5003;43703;51.060;-0.086;2023-03-11T00:42:27;19;18;
57884;PMS5003;43703;51.060;-0.086;2023-03-11T00:44:52;16;14;
57884;PMS5003;43703;51.060;-0.086;2023-03-11T00:47:18;15;13;
57884;PMS5003;43703;51.060;-0.086;2023-03-11T00:49:43;15;15;
57884;PMS5003;43703;51.060;-0.086;2023-03-11T00:52:08;16;14;
57884;PMS5003;43703;51.060;-0.086;2023-03-11T00:54:34;13;13;
57884;PMS5003;43703;51.060;-0.086;2023-03-11T00:56:59;17;15;
57884;PMS5003;43703;51.060;-0.086;2023-03-11T00:59:24;17;16;
57884;PMS5003;43703;51.060;-0.086;2023-03-11T01:01:50;17;15;
57884;PMS5003;43703;51.060;-0.086;2023-03-11T01:04:15;14;14;
57884;PMS5003;43703;51.060;-0.086;2023-03-11T01:06:40;13;13;
57884;PMS5003;43703;51.060;-0.086;2023-03-11T01:09:06;14;14;
57884;PMS5003;43703;51.060;-0.086;2023-03-11T01:11:31;14;14;
57884;PMS5003;43703;51.060;-0.086;2023-03-11T01:13:56;14;12;
57884;PMS5003;43703;51.060;-0.086;2023-03-11T01:16:21;12;12;
57884;PMS5003;43703;51.060;-0.086;2023-03-11T01:18:47;11;11;
57884;PMS5003;43703;51.060;-0.086;2023-03-11T01:21:12;16;13;
57884;PMS5003;43703;51.060;-0.086;2023-03-11T01:23:37;13;13;
57884;PMS5003;43703;51.060;-0.086;2023-03-11T01:26:03;14;12;
57884;PMS5003;43703;51.060;-0.086;2023-03-11T01:28:28;14;13;
57884;PMS5003;43703;51.060;-0.086;2023-03-11T01:30:53;11;11;
57884;PMS5003;43703;51.060;-0.086;2023-03-11T01:33:19;12;10;
57884;PMS5003;43703;51.060;-0.086;2023-03-11T01:35:45;15;12;
57884;PMS5003;43703;51.060;-0.086;2023-03-11T01:38:10;13;12;
57884;PMS5003;43703;51.060;-0.086;2023-03-11T01:40:35;13;12;
57884;PMS5003;43703;51.060;-0.086;2023-03-11T01:43:00;9;9;
57884;PMS5003;43703;51.060;-0.086;2023-03-11T01:45:30;13;10;
57884;PMS5003;43703;51.060;-0.086;2023-03-11T01:47:51;12;10;
57884;PMS5003;43703;51.060;-0.086;2023-03-11T01:50:16;14;11;
57884;PMS5003;43703;51.060;-0.086;2023-03-11T01:52:41;9;9;
57884;PMS5003;43703;51.060;-0.086;2023-03-11T01:55:07;13;10;
57884;PMS5003;43703;51.060;-0.086;2023-03-11T01:57:32;9;9;
57884;PMS5003;43703;51.060;-0.086;2023-03-11T01:59:57;14;11;
57884;PMS5003;43703;51.060;-0.086;2023-03-11T02:02:24;15;12;
57884;PMS5003;43703;51.060;-0.086;2023-03-11T02:04:48;11;11;
57884;PMS5003;43703;51.060;-0.086;2023-03-11T02:07:13;10;10;
57884;PMS5003;43703;51.060;-0.086;2023-03-11T02:09:39;13;12;
57884;PMS5003;43703;51.060;-0.086;2023-03-11T02:12:05;14;13;
57884;PMS5003;43703;51.060;-0.086;2023-03-11T02:14:29;15;13;
57884;PMS5003;43703;51.060;-0.086;2023-03-11T02:16:55;12;10;
57884;PMS5003;43703;51.060;-0.086;2023-03-11T02:19:21;12;10;
57884;PMS5003;43703;51.060;-0.086;2023-03-11T02:21:45;17;14;
57884;PMS5003;43703;51.060;-0.086;2023-03-11T02:24:12;13;12;
57884;PMS5003;43703;51.060;-0.086;2023-03-11T02:26:36;12;11;
57884;PMS5003;43703;51.060;-0.086;2023-03-11T02:29:01;12;12;
57884;PMS5003;43703;51.060;-0.086;2023-03-11T02:31:26;12;10;
57884;PMS5003;43703;51.060;-0.086;2023-03-11T02:33:51;13;12;
57884;PMS5003;43703;51.060;-0.086;2023-03-11T02:38:41;12;11;
57884;PMS5003;43703;51.060;-0.086;2023-03-11T02:41:07;12;12;
57884;PMS5003;43703;51.060;-0.086;2023-03-11T02:43:33;12;12;
57884;PMS5003;43703;51.060;-0.086;2023-03-11T02:45:57;12;10;
57884;PMS5003;43703;51.060;-0.086;2023-03-11T02:48:23;17;14;
57884;PMS5003;43703;51.060;-0.086;2023-03-11T02:50:48;14;13;
57884;PMS5003;43703;51.060;-0.086;2023-03-11T02:53:15;13;12;
57884;PMS5003;43703;51.060;-0.086;2023-03-11T02:55:39;14;11;
57884;PMS5003;43703;51.060;-0.086;2023-03-11T02:58:04;11;9;
57884;PMS5003;43703;51.060;-0.086;2023-03-11T03:00:30;10;9;
57884;PMS5003;43703;51.060;-0.086;2023-03-11T03:02:55;12;10;
57884;PMS5003;43703;51.060;-0.086;2023-03-11T03:05:20;11;11;
57884;PMS5003;43703;51.060;-0.086;2023-03-11T03:07:45;11;9;
57884;PMS5003;43703;51.060;-0.086;2023-03-11T03:10:11;10;9;
57884;PMS5003;43703;51.060;-0.086;2023-03-11T03:12:36;11;11;
57884;PMS5003;43703;51.060;-0.086;2023-03-11T03:15:02;10;9;
57884;PMS5003;43703;51.060;-0.086;2023-03-11T03:17:28;10;9;
57884;PMS5003;43703;51.060;-0.086;2023-03-11T03:19:52;12;10;
57884;PMS5003;43703;51.060;-0.086;2023-03-11T03:22:17;14;14;
57884;PMS5003;43703;51.060;-0.086;2023-03-11T03:24:43;9;7;
57884;PMS5003;43703;51.060;-0.086;2023-03-11T03:27:08;8;7;
57884;PMS5003;43703;51.060;-0.086;2023-03-11T03:29:33;8;8;
57884;PMS5003;43703;51.060;-0.086;2023-03-11T03:31:58;10;9;
57884;PMS5003;43703;51.060;-0.086;2023-03-11T03:34:24;8;8;
57884;PMS5003;43703;51.060;-0.086;2023-03-11T03:36:50;11;9;
57884;PMS5003;43703;51.060;-0.086;2023-03-11T03:39:15;8;7;
57884;PMS5003;43703;51.060;-0.086;2023-03-11T03:41:41;9;9;
57884;PMS5003;43703;51.060;-0.086;2023-03-11T03:44:06;10;8;
57884;PMS5003;43703;51.060;-0.086;2023-03-11T03:46:31;8;8;
57884;PMS5003;43703;51.060;-0.086;2023-03-11T03:48:57;8;8;
57884;PMS5003;43703;51.060;-0.086;2023-03-11T03:51:22;8;8;
57884;PMS5003;43703;51.060;-0.086;2023-03-11T03:53:48;7;7;
57884;PMS5003;43703;51.060;-0.086;2023-03-11T03:56:13;11;9;
57884;PMS5003;43703;51.060;-0.086;2023-03-11T03:58:38;10;10;
57884;PMS5003;43703;51.060;-0.086;2023-03-11T04:01:04;9;8;
57884;PMS5003;43703;51.060;-0.086;2023-03-11T04:03:29;8;7;
57884;PMS5003;43703;51.060;-0.086;2023-03-11T04:05:54;8;8;
57884;PMS5003;43703;51.060;-0.086;2023-03-11T04:08:19;10;7;
57884;PMS5003;43703;51.060;-0.086;2023-03-11T04:10:47;9;7;
57884;PMS5003;43703;51.060;-0.086;2023-03-11T04:13:10;10;7;
57884;PMS5003;43703;51.060;-0.086;2023-03-11T04:15:36;8;7;
57884;PMS5003;43703;51.060;-0.086;2023-03-11T04:18:00;8;8;
57884;PMS5003;43703;51.060;-0.086;2023-03-11T04:20:26;7;6;
57884;PMS5003;43703;51.060;-0.086;2023-03-11T04:22:51;6;6;
57884;PMS5003;43703;51.060;-0.086;2023-03-11T04:25:16;5;4;
57884;PMS5003;43703;51.060;-0.086;2023-03-11T04:27:42;5;5;
57884;PMS5003;43703;51.060;-0.086;2023-03-11T04:30:09;5;5;
57884;PMS5003;43703;51.060;-0.086;2023-03-11T04:32:32;6;5;
57884;PMS5003;43703;51.060;-0.086;2023-03-11T04:34:57;5;4;
57884;PMS5003;43703;51.060;-0.086;2023-03-11T04:37:26;4;4;
57884;PMS5003;43703;51.060;-0.086;2023-03-11T04:39:49;4;4;
57884;PMS5003;43703;51.060;-0.086;2023-03-11T04:42:13;6;5;
57884;PMS5003;43703;51.060;-0.086;2023-03-11T04:44:38;3;3;
57884;PMS5003;43703;51.060;-0.086;2023-03-11T04:47:03;4;3;
57884;PMS5003;43703;51.060;-0.086;2023-03-11T04:49:28;3;3;
57884;PMS5003;43703;51.060;-0.086;2023-03-11T04:51:53;2;2;
57884;PMS5003;43703;51.060;-0.086;2023-03-11T04:54:18;4;4;
57884;PMS5003;43703;51.060;-0.086;2023-03-11T04:56:43;3;3;
57884;PMS5003;43703;51.060;-0.086;2023-03-11T04:59:09;5;4;
57884;PMS5003;43703;51.060;-0.086;2023-03-11T05:01:34;1;1;
57884;PMS5003;43703;51.060;-0.086;2023-03-11T05:04:00;5;4;
57884;PMS5003;43703;51.060;-0.086;2023-03-11T05:06:24;2;2;
57884;PMS5003;43703;51.060;-0.086;2023-03-11T05:08:49;2;2;
57884;PMS5003;43703;51.060;-0.086;2023-03-11T05:11:15;2;2;
57884;PMS5003;43703;51.060;-0.086;2023-03-11T05:13:40;4;3;
57884;PMS5003;43703;51.060;-0.086;2023-03-11T05:16:05;3;3;
57884;PMS5003;43703;51.060;-0.086;2023-03-11T05:18:30;3;3;
57884;PMS5003;43703;51.060;-0.086;2023-03-11T05:20:55;2;2;
57884;PMS5003;43703;51.060;-0.086;2023-03-11T05:23:21;3;3;
57884;PMS5003;43703;51.060;-0.086;2023-03-11T05:25:46;3;2;
57884;PMS5003;43703;51.060;-0.086;2023-03-11T05:28:11;3;3;
57884;PMS5003;43703;51.060;-0.086;2023-03-11T05:30:36;2;2;
57884;PMS5003;43703;51.060;-0.086;2023-03-11T05:33:01;3;3;
57884;PMS5003;43703;51.060;-0.086;2023-03-11T05:35:27;4;4;
57884;PMS5003;43703;51.060;-0.086;2023-03-11T05:37:52;3;3;
57884;PMS5003;43703;51.060;-0.086;2023-03-11T05:40:17;5;4;
57884;PMS5003;43703;51.060;-0.086;2023-03-11T05:42:42;3;3;
57884;PMS5003;43703;51.060;-0.086;2023-03-11T05:45:08;3;3;
57884;PMS5003;43703;51.060;-0.086;2023-03-11T05:47:33;4;3;
57884;PMS5003;43703;51.060;-0.086;2023-03-11T05:49:58;2;2;
57884;PMS5003;43703;51.060;-0.086;2023-03-11T05:52:23;4;2;
57884;PMS5003;43703;51.060;-0.086;2023-03-11T05:54:49;3;3;
57884;PMS5003;43703;51.060;-0.086;2023-03-11T05:57:14;1;1;
57884;PMS5003;43703;51.060;-0.086;2023-03-11T05:59:39;3;3;
57884;PMS5003;43703;51.060;-0.086;2023-03-11T06:02:04;2;2;
57884;PMS5003;43703;51.060;-0.086;2023-03-11T06:04:29;2;2;
57884;PMS5003;43703;51.060;-0.086;2023-03-11T06:06:54;2;2;
57884;PMS5003;43703;51.060;-0.086;2023-03-11T06:09:19;3;2;
57884;PMS5003;43703;51.060;-0.086;2023-03-11T06:11:44;7;7;
57884;PMS5003;43703;51.060;-0.086;2023-03-11T06:14:10;3;3;
57884;PMS5003;43703;51.060;-0.086;2023-03-11T06:16:35;3;3;
57884;PMS5003;43703;51.060;-0.086;2023-03-11T06:19:00;3;3;
57884;PMS5003;43703;51.060;-0.086;2023-03-11T06:21:26;3;3;
57884;PMS5003;43703;51.060;-0.086;2023-03-11T06:23:51;3;3;
57884;PMS5003;43703;51.060;-0.086;2023-03-11T06:26:16;6;6;
57884;PMS5003;43703;51.060;-0.086;2023-03-11T06:28:41;6;3;
57884;PMS5003;43703;51.060;-0.086;2023-03-11T06:31:06;3;3;
57884;PMS5003;43703;51.060;-0.086;2023-03-11T06:33:31;4;3;
57884;PMS5003;43703;51.060;-0.086;2023-03-11T06:35:56;2;2;
57884;PMS5003;43703;51.060;-0.086;2023-03-11T06:38:21;3;3;
57884;PMS5003;43703;51.060;-0.086;2023-03-11T06:40:46;7;7;
57884;PMS5003;43703;51.060;-0.086;2023-03-11T06:43:11;2;2;
57884;PMS5003;43703;51.060;-0.086;2023-03-11T06:45:37;2;1;
57884;PMS5003;43703;51.060;-0.086;2023-03-11T06:48:02;3;2;
57884;PMS5003;43703;51.060;-0.086;2023-03-11T06:50:27;2;2;
57884;PMS5003;43703;51.060;-0.086;2023-03-11T06:52:52;3;3;
57884;PMS5003;43703;51.060;-0.086;2023-03-11T06:55:17;1;1;
57884;PMS5003;43703;51.060;-0.086;2023-03-11T06:57:42;4;4;
57884;PMS5003;43703;51.060;-0.086;2023-03-11T07:00:08;2;2;
57884;PMS5003;43703;51.060;-0.086;2023-03-11T07:02:32;3;2;
57884;PMS5003;43703;51.060;-0.086;2023-03-11T07:04:58;2;2;
57884;PMS5003;43703;51.060;-0.086;2023-03-11T07:07:23;3;3;
57884;PMS5003;43703;51.060;-0.086;2023-03-11T07:09:48;3;3;
57884;PMS5003;43703;51.060;-0.086;2023-03-11T07:12:13;8;6;
57884;PMS5003;43703;51.060;-0.086;2023-03-11T07:14:38;2;2;
57884;PMS5003;43703;51.060;-0.086;2023-03-11T07:17:03;4;2;
57884;PMS5003;43703;51.060;-0.086;2023-03-11T07:19:28;1;1;
57884;PMS5003;43703;51.060;-0.086;2023-03-11T07:21:53;3;2;
57884;PMS5003;43703;51.060;-0.086;2023-03-11T07:24:18;2;1;
57884;PMS5003;43703;51.060;-0.086;2023-03-11T07:26:44;1;1;
57884;PMS5003;43703;51.060;-0.086;2023-03-11T07:29:09;2;2;
57884;PMS5003;43703;51.060;-0.086;2023-03-11T07:31:34;3;1;
57884;PMS5003;43703;51.060;-0.086;2023-03-11T07:34:00;2;2;
57884;PMS5003;43703;51.060;-0.086;2023-03-11T07:36:24;2;2;
57884;PMS5003;43703;51.060;-0.086;2023-03-11T07:38:53;3;2;
57884;PMS5003;43703;51.060;-0.086;2023-03-11T07:41:14;2;2;
57884;PMS5003;43703;51.060;-0.086;2023-03-11T07:43:42;3;3;
57884;PMS5003;43703;51.060;-0.086;2023-03-11T07:46:06;1;1;
57884;PMS5003;43703;51.060;-0.086;2023-03-11T07:48:30;3;3;
57884;PMS5003;43703;51.060;-0.086;2023-03-11T07:50:58;1;1;
57884;PMS5003;43703;51.060;-0.086;2023-03-11T07:53:20;2;2;
57884;PMS5003;43703;51.060;-0.086;2023-03-11T07:55:45;1;1;
57884;PMS5003;43703;51.060;-0.086;2023-03-11T07:58:10;2;2;
57884;PMS5003;43703;51.060;-0.086;2023-03-11T08:00:35;1;1;
57884;PMS5003;43703;51.060;-0.086;2023-03-11T08:03:00;4;4;
57884;PMS5003;43703;51.060;-0.086;2023-03-11T08:05:25;2;2;
57884;PMS5003;43703;51.060;-0.086;2023-03-11T08:07:50;1;1;
57884;PMS5003;43703;51.060;-0.086;2023-03-11T08:10:16;4;3;
57884;PMS5003;43703;51.060;-0.086;2023-03-11T08:12:41;28;27;
57884;PMS5003;43703;51.060;-0.086;2023-03-11T08:15:07;13;10;
57884;PMS5003;43703;51.060;-0.086;2023-03-11T08:17:32;13;10;
57884;PMS5003;43703;51.060;-0.086;2023-03-11T08:19:58;5;4;
57884;PMS5003;43703;51.060;-0.086;2023-03-11T08:22:23;6;4;
57884;PMS5003;43703;51.060;-0.086;2023-03-11T08:24:50;2;2;
57884;PMS5003;43703;51.060;-0.086;2023-03-11T08:27:14;3;3;
57884;PMS5003;43703;51.060;-0.086;2023-03-11T08:29:39;1;1;
57884;PMS5003;43703;51.060;-0.086;2023-03-11T08:32:05;4;4;
57884;PMS5003;43703;51.060;-0.086;2023-03-11T08:34:29;5;5;
57884;PMS5003;43703;51.060;-0.086;2023-03-11T08:36:55;5;5;
57884;PMS5003;43703;51.060;-0.086;2023-03-11T08:39:20;4;4;
57884;PMS5003;43703;51.060;-0.086;2023-03-11T08:41:45;3;3;
57884;PMS5003;43703;51.060;-0.086;2023-03-11T08:44:10;6;5;
57884;PMS5003;43703;51.060;-0.086;2023-03-11T08:46:36;3;3;
57884;PMS5003;43703;51.060;-0.086;2023-03-11T08:49:01;8;8;
57884;PMS5003;43703;51.060;-0.086;2023-03-11T08:51:27;19;18;
57884;PMS5003;43703;51.060;-0.086;2023-03-11T08:53:52;6;6;
57884;PMS5003;43703;51.060;-0.086;2023-03-11T08:56:17;6;4;
57884;PMS5003;43703;51.060;-0.086;2023-03-11T08:58:43;31;30;
57884;PMS5003;43703;51.060;-0.086;2023-03-11T09:01:09;5;5;
57884;PMS5003;43703;51.060;-0.086;2023-03-11T09:03:34;8;7;
57884;PMS5003;43703;51.060;-0.086;2023-03-11T09:05:58;4;4;
57884;PMS5003;43703;51.060;-0.086;2023-03-11T09:08:23;3;3;
57884;PMS5003;43703;51.060;-0.086;2023-03-11T09:10:48;4;3;
57884;PMS5003;43703;51.060;-0.086;2023-03-11T09:13:14;7;5;
57884;PMS5003;43703;51.060;-0.086;2023-03-11T09:15:39;4;4;
57884;PMS5003;43703;51.060;-0.086;2023-03-11T09:18:04;3;3;
57884;PMS5003;43703;51.060;-0.086;2023-03-11T09:20:30;2;2;
57884;PMS5003;43703;51.060;-0.086;2023-03-11T09:22:55;3;3;
57884;PMS5003;43703;51.060;-0.086;2023-03-11T09:25:21;2;2;
57884;PMS5003;43703;51.060;-0.086;2023-03-11T09:27:45;5;3;
57884;PMS5003;43703;51.060;-0.086;2023-03-11T09:30:10;4;2;
57884;PMS5003;43703;51.060;-0.086;2023-03-11T09:32:35;4;3;
57884;PMS5003;43703;51.060;-0.086;2023-03-11T09:35:00;2;2;
57884;PMS5003;43703;51.060;-0.086;2023-03-11T09:37:25;2;2;
57884;PMS5003;43703;51.060;-0.086;2023-03-11T09:39:50;3;3;
57884;PMS5003;43703;51.060;-0.086;2023-03-11T09:42:17;2;2;
57884;PMS5003;43703;51.060;-0.086;2023-03-11T09:44:40;3;3;
57884;PMS5003;43703;51.060;-0.086;2023-03-11T09:47:08;3;3;
57884;PMS5003;43703;51.060;-0.086;2023-03-11T09:49:33;5;3;
57884;PMS5003;43703;51.060;-0.086;2023-03-11T09:51:56;8;5;
57884;PMS5003;43703;51.060;-0.086;2023-03-11T09:54:21;4;4;
57884;PMS5003;43703;51.060;-0.086;2023-03-11T09:56:45;6;6;
57884;PMS5003;43703;51.060;-0.086;2023-03-11T09:59:17;3;3;
57884;PMS5003;43703;51.060;-0.086;2023-03-11T10:01:38;4;4;
57884;PMS5003;43703;51.060;-0.086;2023-03-11T10:04:03;4;3;
57884;PMS5003;43703;51.060;-0.086;2023-03-11T10:06:27;6;6;
57884;PMS5003;43703;51.060;-0.086;2023-03-11T10:08:55;6;6;
57884;PMS5003;43703;51.060;-0.086;2023-03-11T10:11:24;5;2;
57884;PMS5003;43703;51.060;-0.086;2023-03-11T10:13:43;5;4;
57884;PMS5003;43703;51.060;-0.086;2023-03-11T10:16:09;6;6;
57884;PMS5003;43703;51.060;-0.086;2023-03-11T10:18:36;4;4;
57884;PMS5003;43703;51.060;-0.086;2023-03-11T10:20:58;4;4;
57884;PMS5003;43703;51.060;-0.086;2023-03-11T10:23:23;5;2;
57884;PMS5003;43703;51.060;-0.086;2023-03-11T10:25:50;3;3;
57884;PMS5003;43703;51.060;-0.086;2023-03-11T10:28:12;3;3;
57884;PMS5003;43703;51.060;-0.086;2023-03-11T10:30:38;5;3;
57884;PMS5003;43703;51.060;-0.086;2023-03-11T10:33:04;3;3;
57884;PMS5003;43703;51.060;-0.086;2023-03-11T10:35:32;6;6;
57884;PMS5003;43703;51.060;-0.086;2023-03-11T10:37:52;3;2;
57884;PMS5003;43703;51.060;-0.086;2023-03-11T10:40:18;5;2;
57884;PMS5003;43703;51.060;-0.086;2023-03-11T10:42:42;3;3;
57884;PMS5003;43703;51.060;-0.086;2023-03-11T10:45:10;6;4;
57884;PMS5003;43703;51.060;-0.086;2023-03-11T10:47:32;6;5;
57884;PMS5003;43703;51.060;-0.086;2023-03-11T10:49:57;4;4;
57884;PMS5003;43703;51.060;-0.086;2023-03-11T10:52:22;3;3;
57884;PMS5003;43703;51.060;-0.086;2023-03-11T10:54:47;2;2;
57884;PMS5003;43703;51.060;-0.086;2023-03-11T11:02:15;3;3;
57884;PMS5003;43703;51.060;-0.086;2023-03-11T11:04:29;4;4;
57884;PMS5003;43703;51.060;-0.086;2023-03-11T11:06:53;4;4;
57884;PMS5003;43703;51.060;-0.086;2023-03-11T11:09:20;2;2;
57884;PMS5003;43703;51.060;-0.086;2023-03-11T11:14:10;1;1;
57884;PMS5003;43703;51.060;-0.086;2023-03-11T11:16:36;2;2;
57884;PMS5003;43703;51.060;-0.086;2023-03-11T11:19:03;2;0;
57884;PMS5003;43703;51.060;-0.086;2023-03-11T11:21:30;1;1;
57884;PMS5003;43703;51.060;-0.086;2023-03-11T11:26:21;5;4;
57884;PMS5003;43703;51.060;-0.086;2023-03-11T11:28:46;0;0;
57884;PMS5003;43703;51.060;-0.086;2023-03-11T11:33:38;1;1;
57884;PMS5003;43703;51.060;-0.086;2023-03-11T11:36:02;2;2;
57884;PMS5003;43703;51.060;-0.086;2023-03-11T11:38:27;2;2;
57884;PMS5003;43703;51.060;-0.086;2023-03-11T11:40:52;3;2;
57884;PMS5003;43703;51.060;-0.086;2023-03-11T11:43:18;1;0;
57884;PMS5003;43703;51.060;-0.086;2023-03-11T11:45:43;5;1;
57884;PMS5003;43703;51.060;-0.086;2023-03-11T11:48:12;3;1;
57884;PMS5003;43703;51.060;-0.086;2023-03-11T11:50:33;0;0;
57884;PMS5003;43703;51.060;-0.086;2023-03-11T11:53:00;3;1;
57884;PMS5003;43703;51.060;-0.086;2023-03-11T11:55:23;3;2;
57884;PMS5003;43703;51.060;-0.086;2023-03-11T11:57:47;2;2;
57884;PMS5003;43703;51.060;-0.086;2023-03-11T12:00:16;3;2;
57884;PMS5003;43703;51.060;-0.086;2023-03-11T12:02:41;0;0;
57884;PMS5003;43703;51.060;-0.086;2023-03-11T12:05:05;4;2;
57884;PMS5003;43703;51.060;-0.086;2023-03-11T12:07:33;2;2;
57884;PMS5003;43703;51.060;-0.086;2023-03-11T12:09:55;1;1;
57884;PMS5003;43703;51.060;-0.086;2023-03-11T12:12:20;3;1;
57884;PMS5003;43703;51.060;-0.086;2023-03-11T12:14:44;4;1;
57884;PMS5003;43703;51.060;-0.086;2023-03-11T12:17:08;2;2;
57884;PMS5003;43703;51.060;-0.086;2023-03-11T12:19:35;4;4;
57884;PMS5003;43703;51.060;-0.086;2023-03-11T12:26:49;3;3;
57884;PMS5003;43703;51.060;-0.086;2023-03-11T12:29:17;2;2;
57884;PMS5003;43703;51.060;-0.086;2023-03-11T12:31:39;4;3;
57884;PMS5003;43703;51.060;-0.086;2023-03-11T12:34:05;4;4;
57884;PMS5003;43703;51.060;-0.086;2023-03-11T12:36:30;3;2;
57884;PMS5003;43703;51.060;-0.086;2023-03-11T12:38:55;2;2;
57884;PMS5003;43703;51.060;-0.086;2023-03-11T12:46:11;4;2;
57884;PMS5003;43703;51.060;-0.086;2023-03-11T12:48:36;4;1;
57884;PMS5003;43703;51.060;-0.086;2023-03-11T12:51:00;3;3;
57884;PMS5003;43703;51.060;-0.086;2023-03-11T12:55:56;2;2;
57884;PMS5003;43703;51.060;-0.086;2023-03-11T13:00:44;2;2;
57884;PMS5003;43703;51.060;-0.086;2023-03-11T13:03:13;2;2;
57884;PMS5003;43703;51.060;-0.086;2023-03-11T13:05:30;2;2;
57884;PMS5003;43703;51.060;-0.086;2023-03-11T13:07:55;2;2;
57884;PMS5003;43703;51.060;-0.086;2023-03-11T13:12:45;2;2;
57884;PMS5003;43703;51.060;-0.086;2023-03-11T13:17:35;3;3;
57884;PMS5003;43703;51.060;-0.086;2023-03-11T13:20:00;3;3;
57884;PMS5003;43703;51.060;-0.086;2023-03-11T13:24:51;2;1;
57884;PMS5003;43703;51.060;-0.086;2023-03-11T13:27:27;1;1;
57884;PMS5003;43703;51.060;-0.086;2023-03-11T13:29:45;2;2;
57884;PMS5003;43703;51.060;-0.086;2023-03-11T13:34:35;2;2;
57884;PMS5003;43703;51.060;-0.086;2023-03-11T13:37:03;3;2;
57884;PMS5003;43703;51.060;-0.086;2023-03-11T13:39:26;2;2;
57884;PMS5003;43703;51.060;-0.086;2023-03-11T13:41:46;3;2;
57884;PMS5003;43703;51.060;-0.086;2023-03-11T13:44:13;1;0;
57884;PMS5003;43703;51.060;-0.086;2023-03-11T13:46:38;3;3;
57884;PMS5003;43703;51.060;-0.086;2023-03-11T13:49:05;0;0;
57884;PMS5003;43703;51.060;-0.086;2023-03-11T13:51:30;3;2;
57884;PMS5003;43703;51.060;-0.086;2023-03-11T13:53:53;2;2;
57884;PMS5003;43703;51.060;-0.086;2023-03-11T13:56:24;3;3;
57884;PMS5003;43703;51.060;-0.086;2023-03-11T13:58:43;3;2;
57884;PMS5003;43703;51.060;-0.086;2023-03-11T14:01:13;3;2;
57884;PMS5003;43703;51.060;-0.086;2023-03-11T14:03:35;2;2;
57884;PMS5003;43703;51.060;-0.086;2023-03-11T14:05:59;3;3;
57884;PMS5003;43703;51.060;-0.086;2023-03-11T14:08:25;2;2;
57884;PMS5003;43703;51.060;-0.086;2023-03-11T14:10:52;1;1;
57884;PMS5003;43703;51.060;-0.086;2023-03-11T14:13:15;3;3;
57884;PMS5003;43703;51.060;-0.086;2023-03-11T14:15:41;2;2;
57884;PMS5003;43703;51.060;-0.086;2023-03-11T14:20:28;1;1;
57884;PMS5003;43703;51.060;-0.086;2023-03-11T14:22:58;1;1;
57884;PMS5003;43703;51.060;-0.086;2023-03-11T14:25:19;3;2;
57884;PMS5003;43703;51.060;-0.086;2023-03-11T14:27:45;5;5;
57884;PMS5003;43703;51.060;-0.086;2023-03-11T14:32:34;4;3;
57884;PMS5003;43703;51.060;-0.086;2023-03-11T14:34:59;3;3;
57884;PMS5003;43703;51.060;-0.086;2023-03-11T14:37:24;3;2;
57884;PMS5003;43703;51.060;-0.086;2023-03-11T14:39:48;1;1;
57884;PMS5003;43703;51.060;-0.086;2023-03-11T14:42:16;2;0;
57884;PMS5003;43703;51.060;-0.086;2023-03-11T14:44:40;3;3;
57884;PMS5003;43703;51.060;-0.086;2023-03-11T14:47:06;3;2;
57884;PMS5003;43703;51.060;-0.086;2023-03-11T14:49:30;3;1;
57884;PMS5003;43703;51.060;-0.086;2023-03-11T14:51:55;3;2;
57884;PMS5003;43703;51.060;-0.086;2023-03-11T14:54:20;4;4;
57884;PMS5003;43703;51.060;-0.086;2023-03-11T14:56:45;2;2;
57884;PMS5003;43703;51.060;-0.086;2023-03-11T14:59:10;4;3;
57884;PMS5003;43703;51.060;-0.086;2023-03-11T15:01:35;5;3;
57884;PMS5003;43703;51.060;-0.086;2023-03-11T15:04:00;4;4;
57884;PMS5003;43703;51.060;-0.086;2023-03-11T15:06:25;6;3;
57884;PMS5003;43703;51.060;-0.086;2023-03-11T15:08:50;6;4;
57884;PMS5003;43703;51.060;-0.086;2023-03-11T15:11:19;4;2;
57884;PMS5003;43703;51.060;-0.086;2023-03-11T15:13:41;2;2;
57884;PMS5003;43703;51.060;-0.086;2023-03-11T15:16:06;3;3;
57884;PMS5003;43703;51.060;-0.086;2023-03-11T15:18:31;3;3;
57884;PMS5003;43703;51.060;-0.086;2023-03-11T15:23:20;2;2;
57884;PMS5003;43703;51.060;-0.086;2023-03-11T15:25:47;3;3;
57884;PMS5003;43703;51.060;-0.086;2023-03-11T15:30:35;3;2;
57884;PMS5003;43703;51.060;-0.086;2023-03-11T15:33:00;2;2;
57884;PMS5003;43703;51.060;-0.086;2023-03-11T15:35:26;2;2;
57884;PMS5003;43703;51.060;-0.086;2023-03-11T15:38:09;2;2;
57884;PMS5003;43703;51.060;-0.086;2023-03-11T15:40:18;2;1;
57884;PMS5003;43703;51.060;-0.086;2023-03-11T15:42:41;1;1;
57884;PMS5003;43703;51.060;-0.086;2023-03-11T15:47:31;2;2;
57884;PMS5003;43703;51.060;-0.086;2023-03-11T15:49:56;2;2;
57884;PMS5003;43703;51.060;-0.086;2023-03-11T15:52:21;1;1;
57884;PMS5003;43703;51.060;-0.086;2023-03-11T15:54:46;2;2;
57884;PMS5003;43703;51.060;-0.086;2023-03-11T15:57:14;1;1;
57884;PMS5003;43703;51.060;-0.086;2023-03-11T15:59:36;2;2;
57884;PMS5003;43703;51.060;-0.086;2023-03-11T16:02:01;4;4;
57884;PMS5003;43703;51.060;-0.086;2023-03-11T16:04:26;3;3;
57884;PMS5003;43703;51.060;-0.086;2023-03-11T16:06:52;2;2;
57884;PMS5003;43703;51.060;-0.086;2023-03-11T16:09:16;2;2;
57884;PMS5003;43703;51.060;-0.086;2023-03-11T16:11:42;2;2;
57884;PMS5003;43703;51.060;-0.086;2023-03-11T16:14:08;1;1;
57884;PMS5003;43703;51.060;-0.086;2023-03-11T16:16:32;4;4;
57884;PMS5003;43703;51.060;-0.086;2023-03-11T16:18:57;3;3;
57884;PMS5003;43703;51.060;-0.086;2023-03-11T16:21:22;3;3;
57884;PMS5003;43703;51.060;-0.086;2023-03-11T16:23:47;4;4;
57884;PMS5003;43703;51.060;-0.086;2023-03-11T16:26:12;2;2;
57884;PMS5003;43703;51.060;-0.086;2023-03-11T16:28:38;3;2;
57884;PMS5003;43703;51.060;-0.086;2023-03-11T16:31:02;3;3;
57884;PMS5003;43703;51.060;-0.086;2023-03-11T16:33:28;4;2;
57884;PMS5003;43703;51.060;-0.086;2023-03-11T16:35:53;4;4;
57884;PMS5003;43703;51.060;-0.086;2023-03-11T16:38:18;3;3;
57884;PMS5003;43703;51.060;-0.086;2023-03-11T16:40:43;7;5;
57884;PMS5003;43703;51.060;-0.086;2023-03-11T16:43:09;4;4;
57884;PMS5003;43703;51.060;-0.086;2023-03-11T16:45:33;7;4;
57884;PMS5003;43703;51.060;-0.086;2023-03-11T16:47:58;8;6;
57884;PMS5003;43703;51.060;-0.086;2023-03-11T16:50:23;4;2;
57884;PMS5003;43703;51.060;-0.086;2023-03-11T16:52:48;6;5;
57884;PMS5003;43703;51.060;-0.086;2023-03-11T16:55:13;6;5;
57884;PMS5003;43703;51.060;-0.086;2023-03-11T16:57:38;5;5;
57884;PMS5003;43703;51.060;-0.086;2023-03-11T17:00:04;10;10;
57884;PMS5003;43703;51.060;-0.086;2023-03-11T17:02:29;8;8;